createdAt,value
2018-09-20T00:01:52.663Z,23.43
2018-09-20T00:06:45.283Z,23.39
2018-09-20T00:11:37.868Z,23.37
2018-09-20T00:16:30.505Z,23.34
2018-09-20T00:21:23.159Z,23.32
2018-09-20T00:26:15.755Z,23.28
2018-09-20T00:31:08.322Z,23.26
2018-09-20T00:36:00.945Z,23.19
2018-09-20T00:40:53.543Z,23.16
2018-09-20T00:45:46.150Z,23.08
2018-09-20T00:50:38.723Z,23.02
2018-09-20T00:55:31.318Z,22.92
2018-09-20T01:00:23.912Z,22.85
2018-09-20T01:05:16.535Z,22.86
2018-09-20T01:10:09.183Z,22.89
2018-09-20T01:15:01.845Z,22.86
2018-09-20T01:19:54.521Z,22.80
2018-09-20T01:24:47.094Z,22.71
2018-09-20T01:29:39.737Z,22.63
2018-09-20T01:34:32.372Z,22.52
2018-09-20T01:39:24.971Z,22.49
2018-09-20T01:44:17.632Z,22.43
2018-09-20T01:54:02.382Z,22.36
2018-09-20T01:58:54.906Z,22.31
2018-09-20T02:03:47.519Z,22.27
2018-09-20T02:08:40.089Z,22.25
2018-09-20T02:13:32.671Z,22.20
2018-09-20T02:18:25.315Z,22.16
2018-09-20T02:23:17.940Z,22.12
2018-09-20T02:28:10.556Z,22.11
2018-09-20T02:33:03.148Z,22.10
2018-09-20T02:37:55.871Z,22.14
2018-09-20T02:42:48.446Z,22.11
2018-09-20T02:47:41.002Z,22.11
2018-09-20T02:52:33.585Z,22.10
2018-09-20T02:57:26.219Z,22.05
2018-09-20T03:02:18.827Z,21.98
2018-09-20T03:07:11.452Z,21.96
2018-09-20T03:12:04.086Z,21.91
2018-09-20T03:16:56.728Z,21.83
2018-09-20T03:21:49.659Z,21.81
2018-09-20T03:26:42.236Z,21.71
2018-09-20T03:31:34.902Z,21.62
2018-09-20T03:36:27.430Z,21.50
2018-09-20T03:41:20.008Z,21.38
2018-09-20T03:46:13.000Z,21.30
2018-09-20T03:51:05.858Z,21.28
2018-09-20T03:55:58.491Z,21.19
2018-09-20T04:00:51.276Z,21.09
2018-09-20T04:05:43.939Z,21.00
2018-09-20T04:10:36.686Z,20.98
2018-09-20T04:15:29.270Z,21.00
2018-09-20T04:20:21.838Z,20.96
2018-09-20T04:25:14.423Z,20.87
2018-09-20T04:30:07.090Z,20.75
2018-09-20T04:34:59.681Z,20.67
2018-09-20T04:39:52.282Z,20.57
2018-09-20T04:44:44.871Z,20.53
2018-09-20T04:49:37.635Z,20.50
2018-09-20T04:54:30.249Z,20.50
2018-09-20T04:59:22.835Z,20.49
2018-09-20T05:04:15.447Z,20.43
2018-09-20T05:09:10.957Z,20.38
2018-09-20T05:14:03.611Z,20.38
2018-09-20T05:18:56.303Z,20.38
2018-09-20T05:23:48.887Z,20.37
2018-09-20T05:28:41.482Z,20.36
2018-09-20T05:33:34.067Z,20.37
2018-09-20T05:38:26.728Z,20.36
2018-09-20T05:43:19.353Z,20.38
2018-09-20T05:48:11.967Z,20.37
2018-09-20T05:53:04.651Z,20.39
2018-09-20T05:57:57.249Z,20.46
2018-09-20T06:02:49.855Z,20.48
2018-09-20T06:07:42.936Z,20.31
2018-09-20T06:12:35.527Z,20.22
2018-09-20T06:17:28.107Z,20.26
2018-09-20T06:22:20.711Z,20.42
2018-09-20T06:27:13.255Z,20.38
2018-09-20T06:32:05.909Z,20.35
2018-09-20T06:36:58.545Z,20.41
2018-09-20T06:41:51.167Z,20.58
2018-09-20T06:46:43.951Z,20.70
2018-09-20T06:51:36.474Z,20.69
2018-09-20T06:56:29.113Z,20.74
2018-09-20T07:01:21.761Z,20.91
2018-09-20T07:06:14.396Z,21.07
2018-09-20T07:11:07.107Z,21.31
2018-09-20T07:15:59.683Z,21.62
2018-09-20T07:20:52.326Z,21.92
2018-09-20T07:25:44.994Z,22.18
2018-09-20T07:30:37.520Z,22.41
2018-09-20T07:35:30.169Z,22.51
2018-09-20T07:40:22.830Z,22.66
2018-09-20T07:45:15.451Z,22.68
2018-09-20T07:50:08.072Z,22.86
2018-09-20T07:55:00.819Z,23.08
2018-09-20T07:59:53.552Z,23.22
2018-09-20T08:04:46.125Z,23.30
2018-09-20T08:09:38.676Z,23.51
2018-09-20T08:14:31.246Z,23.72
2018-09-20T08:19:23.903Z,23.88
2018-09-20T08:24:16.462Z,24.12
2018-09-20T08:29:09.110Z,24.26
2018-09-20T08:34:01.625Z,24.48
2018-09-20T08:38:54.191Z,24.74
2018-09-20T08:43:46.742Z,24.90
2018-09-20T08:48:39.290Z,25.04
2018-09-20T08:53:31.907Z,25.16
2018-09-20T08:58:24.510Z,25.35
2018-09-20T09:03:17.110Z,25.43
2018-09-20T09:08:09.754Z,25.70
2018-09-20T09:13:02.372Z,25.94
2018-09-20T09:17:55.020Z,26.28
2018-09-20T09:22:47.585Z,26.30
2018-09-20T09:27:40.206Z,26.33
2018-09-20T09:32:32.798Z,26.54
2018-09-20T09:37:25.360Z,26.65
2018-09-20T09:42:18.084Z,26.41
2018-09-20T09:47:10.682Z,26.33
2018-09-20T09:52:03.378Z,26.30
2018-09-20T09:56:56.042Z,26.35
2018-09-20T10:01:48.643Z,26.44
2018-09-20T10:06:41.309Z,26.47
2018-09-20T10:11:33.971Z,26.54
2018-09-20T10:16:26.521Z,26.60
2018-09-20T10:21:19.121Z,26.66
2018-09-20T10:26:13.329Z,26.71
2018-09-20T10:31:05.954Z,26.93
2018-09-20T10:35:58.586Z,27.10
2018-09-20T10:40:51.199Z,27.31
2018-09-20T10:45:43.784Z,27.42
2018-09-20T10:50:36.381Z,27.48
2018-09-20T10:55:29.143Z,27.72
2018-09-20T11:00:21.727Z,27.90
2018-09-20T11:05:14.418Z,28.09
2018-09-20T11:10:07.136Z,28.14
2018-09-20T11:14:59.872Z,28.22
2018-09-20T11:19:55.155Z,28.39
2018-09-20T11:24:51.228Z,28.52
2018-09-20T11:29:44.019Z,28.47
2018-09-20T11:34:36.805Z,28.48
2018-09-20T11:39:30.651Z,28.60
2018-09-20T11:44:23.283Z,28.78
2018-09-20T11:49:16.127Z,29.06
2018-09-20T11:54:08.902Z,29.08
2018-09-20T11:59:01.665Z,29.22
2018-09-20T12:03:54.439Z,29.50
2018-09-20T12:08:47.265Z,29.54
2018-09-20T12:18:39.408Z,29.74
2018-09-20T12:23:32.202Z,29.87
2018-09-20T12:28:24.959Z,29.94
2018-09-20T12:33:17.489Z,29.86
2018-09-20T12:38:10.100Z,29.98
2018-09-20T12:43:02.815Z,30.10
2018-09-20T12:47:55.458Z,30.16
2018-09-20T12:52:48.022Z,30.23
2018-09-20T12:57:40.619Z,30.42
2018-09-20T13:02:33.229Z,30.58
2018-09-20T13:07:25.869Z,30.72
2018-09-20T13:12:18.618Z,30.83
2018-09-20T13:17:11.246Z,30.76
2018-09-20T13:22:03.891Z,30.71
2018-09-20T13:26:56.584Z,30.72
2018-09-20T13:31:49.234Z,30.69
2018-09-20T13:36:41.863Z,30.81
2018-09-20T13:41:34.492Z,30.72
2018-09-20T13:46:27.257Z,30.70
2018-09-20T13:51:20.012Z,30.83
2018-09-20T13:56:12.628Z,30.99
2018-09-20T14:01:05.456Z,31.04
2018-09-20T14:05:58.165Z,31.05
2018-09-20T14:10:50.920Z,30.92
2018-09-20T14:15:43.807Z,30.99
2018-09-20T14:20:36.343Z,31.01
2018-09-20T14:25:28.890Z,30.98
2018-09-20T14:30:21.612Z,30.98
2018-09-20T14:35:14.474Z,31.03
2018-09-20T14:40:07.071Z,31.00
2018-09-20T14:44:59.651Z,31.04
2018-09-20T14:49:52.363Z,31.11
2018-09-20T14:54:45.044Z,31.22
2018-09-20T14:59:37.688Z,31.29
2018-09-20T15:04:30.215Z,31.24
2018-09-20T15:09:22.883Z,31.29
2018-09-20T15:14:15.467Z,31.34
2018-09-20T15:19:08.103Z,31.36
2018-09-20T15:24:00.680Z,31.29
2018-09-20T15:28:53.254Z,31.23
2018-09-20T15:33:45.847Z,31.10
2018-09-20T15:38:38.436Z,31.05
2018-09-20T15:43:30.990Z,30.97
2018-09-20T15:48:23.561Z,30.88
2018-09-20T15:53:16.317Z,30.65
2018-09-20T15:58:09.098Z,30.51
2018-09-20T16:03:01.618Z,30.54
2018-09-20T16:07:54.151Z,30.57
2018-09-20T16:12:46.715Z,30.60
2018-09-20T16:17:39.338Z,30.45
2018-09-20T16:22:31.903Z,30.36
2018-09-20T16:27:24.546Z,30.26
2018-09-20T16:34:57.529Z,30.15
2018-09-20T16:39:53.513Z,29.98
2018-09-20T16:44:46.050Z,29.89
2018-09-20T16:49:38.683Z,29.83
2018-09-20T16:54:31.391Z,29.75
2018-09-20T16:59:24.039Z,29.65
2018-09-20T17:04:16.596Z,29.49
2018-09-20T17:09:10.146Z,29.33
2018-09-20T17:14:02.805Z,29.15
2018-09-20T17:18:55.474Z,28.97
2018-09-20T17:23:48.115Z,28.79
2018-09-20T17:28:40.695Z,28.65
2018-09-20T17:33:33.311Z,28.54
2018-09-20T17:38:27.181Z,28.45
2018-09-20T17:43:28.378Z,28.28
2018-09-20T17:48:21.267Z,28.11
2018-09-20T17:53:14.513Z,28.00
2018-09-20T17:58:07.939Z,27.85
2018-09-20T18:03:00.596Z,27.71
2018-09-20T18:07:53.703Z,27.55
2018-09-20T18:12:46.362Z,27.39
2018-09-20T18:17:39.027Z,27.28
2018-09-20T18:22:31.800Z,27.18
2018-09-20T18:27:24.376Z,27.06
2018-09-20T18:32:17.080Z,26.96
2018-09-20T18:37:09.795Z,26.84
2018-09-20T18:42:02.629Z,26.74
2018-09-20T18:46:55.328Z,26.62
2018-09-20T18:51:48.007Z,26.47
2018-09-20T18:56:40.514Z,26.37
2018-09-20T19:01:33.246Z,26.32
2018-09-20T19:06:25.930Z,26.35
2018-09-20T19:11:18.459Z,26.30
2018-09-20T19:16:11.453Z,26.21
2018-09-20T19:21:04.041Z,26.14
2018-09-20T19:25:56.582Z,26.05
2018-09-20T19:30:49.234Z,25.97
2018-09-20T19:35:41.823Z,25.91
2018-09-20T19:40:34.457Z,25.84
2018-09-20T19:45:27.073Z,25.71
2018-09-20T19:50:19.765Z,25.59
2018-09-20T19:55:12.451Z,25.47
2018-09-20T20:00:05.125Z,25.36
2018-09-20T20:04:57.658Z,25.30
2018-09-20T20:09:50.264Z,25.24
2018-09-20T20:14:42.945Z,25.20
2018-09-20T20:19:35.567Z,25.16
2018-09-20T20:24:28.139Z,25.05
2018-09-20T20:29:20.694Z,24.95
2018-09-20T20:34:13.243Z,24.89
2018-09-20T20:39:07.662Z,24.73
2018-09-20T20:44:00.256Z,24.60
2018-09-20T20:48:52.951Z,24.45
2018-09-20T20:53:45.566Z,24.36
2018-09-20T20:58:38.315Z,24.32
2018-09-20T21:03:30.846Z,24.35
2018-09-20T21:08:23.385Z,24.35
2018-09-20T21:13:49.226Z,24.22
2018-09-20T21:18:41.827Z,24.05
2018-09-20T21:23:34.543Z,23.88
2018-09-20T21:28:27.495Z,23.78
2018-09-20T21:33:20.186Z,23.73
2018-09-20T21:38:12.855Z,23.64
2018-09-20T21:43:05.385Z,23.48
2018-09-20T21:47:58.015Z,23.37
2018-09-20T21:52:50.632Z,23.24
2018-09-20T21:57:43.434Z,23.13
2018-09-20T22:02:41.855Z,23.02
2018-09-20T22:07:35.517Z,22.90
2018-09-20T22:12:28.077Z,22.83
2018-09-20T22:17:20.647Z,22.76
2018-09-20T22:22:13.307Z,22.70
2018-09-20T22:27:06.957Z,22.66
2018-09-20T22:31:59.559Z,22.62
2018-09-20T22:36:52.102Z,22.60
2018-09-20T22:41:44.653Z,22.51
2018-09-20T22:46:37.260Z,22.41
2018-09-20T22:51:29.858Z,22.33
2018-09-20T22:56:22.615Z,22.25
2018-09-20T23:01:15.405Z,22.14
2018-09-20T23:06:07.921Z,22.11
2018-09-20T23:11:00.532Z,22.01
2018-09-20T23:15:53.114Z,21.94
2018-09-20T23:20:45.724Z,21.83
2018-09-20T23:25:38.391Z,21.76
2018-09-20T23:30:30.943Z,21.68
2018-09-20T23:35:23.639Z,21.65
2018-09-20T23:40:16.328Z,21.62
2018-09-20T23:45:08.937Z,21.56
2018-09-20T23:50:01.503Z,21.47
2018-09-20T23:54:54.096Z,21.45
2018-09-20T23:59:46.686Z,21.44
